Time;durP1;ratioP1;P1;durP2;ratioP2;P2;SDS_P1;SDS_P2;PMS_P1;PMS_P2;Temp;Humidity;BMP_temperature;BMP_pressure;BME280_temperature;BME280_humidity;BME280_pressure;Samples;Min_cycle;Max_cycle;Signal;HPM_P1;HPM_P2
2022/08/06 00:00:48;;;;;;;6.13;3.00;;;;;;;;;;5092242;28;20026;-73
2022/08/06 00:03:14;;;;;;;6.45;2.80;;;;;;;;;;5092433;28;20027;-73
2022/08/06 00:05:41;;;;;;;7.13;3.15;;;;;;;;;;5092611;28;20027;-73
2022/08/06 00:08:07;;;;;;;6.80;3.10;;;;;;;;;;5092912;28;20096;-73
2022/08/06 00:10:34;;;;;;;6.75;2.85;;;;;;;;;;5092479;28;20498;-73
2022/08/06 00:13:01;;;;;;;8.73;2.85;;;;;;;;;;5092503;28;20028;-73
2022/08/06 00:15:27;;;;;;;10.90;3.05;;;;;;;;;;5092492;28;20393;-72
2022/08/06 00:17:53;;;;;;;6.47;3.10;;;;;;;;;;5092261;28;20027;-73
2022/08/06 00:20:20;;;;;;;6.13;2.92;;;;;;;;;;5092322;28;20024;-72
2022/08/06 00:22:46;;;;;;;5.78;2.60;;;;;;;;;;5092542;28;20012;-72
2022/08/06 00:25:14;;;;;;;6.65;2.75;;;;;;;;;;5092453;28;20034;-72
2022/08/06 00:27:40;;;;;;;5.63;2.97;;;;;;;;;;5092304;28;20419;-72
2022/08/06 00:30:08;;;;;;;5.25;3.05;;;;;;;;;;5092675;28;20028;-72
2022/08/06 00:32:34;;;;;;;4.28;2.75;;;;;;;;;;5092254;28;20031;-72
2022/08/06 00:35:01;;;;;;;5.53;3.10;;;;;;;;;;5092138;28;20069;-73
2022/08/06 00:37:28;;;;;;;9.88;3.22;;;;;;;;;;5090777;28;20028;-73
2022/08/06 00:39:55;;;;;;;6.00;3.00;;;;;;;;;;5092039;28;20524;-73
2022/08/06 00:42:22;;;;;;;5.95;3.10;;;;;;;;;;5092079;28;20512;-73
2022/08/06 00:44:48;;;;;;;6.43;3.25;;;;;;;;;;5092300;28;20020;-73
2022/08/06 00:47:14;;;;;;;8.93;3.10;;;;;;;;;;5091755;28;20020;-72
2022/08/06 00:49:41;;;;;;;9.43;3.20;;;;;;;;;;5092220;28;20032;-72
2022/08/06 00:52:07;;;;;;;6.53;3.25;;;;;;;;;;5092355;28;20024;-72
2022/08/06 00:54:33;;;;;;;6.47;3.15;;;;;;;;;;5090936;28;20024;-73
2022/08/06 00:57:00;;;;;;;4.43;2.97;;;;;;;;;;5091988;28;20397;-72
2022/08/06 00:59:26;;;;;;;5.60;3.03;;;;;;;;;;5090846;28;20039;-73
2022/08/06 01:01:52;;;;;;;6.75;2.90;;;;;;;;;;5091741;28;20020;-72
2022/08/06 01:04:19;;;;;;;7.38;3.10;;;;;;;;;;5091927;28;20526;-73
2022/08/06 01:06:45;;;;;;;7.40;3.13;;;;;;;;;;5091968;28;20486;-73
2022/08/06 01:09:12;;;;;;;5.82;3.15;;;;;;;;;;5092023;28;20028;-73
2022/08/06 01:11:38;;;;;;;5.32;3.00;;;;;;;;;;5092345;28;20375;-73
2022/08/06 01:14:05;;;;;;;5.07;3.03;;;;;;;;;;5095917;28;20077;-72
2022/08/06 01:16:38;;;;;;;4.75;3.03;;;;;;;;;;5095762;28;20020;-73
2022/08/06 01:19:07;;;;;;;9.13;3.05;;;;;;;;;;5095843;28;20396;-72
2022/08/06 01:21:51;;;;;;;6.38;3.38;;;;;;;;;;5095614;28;20034;-72
2022/08/06 01:24:28;;;;;;;5.13;2.75;;;;;;;;;;5095602;28;20034;-73
2022/08/06 01:27:18;;;;;;;4.95;3.03;;;;;;;;;;5095888;28;20027;-73
2022/08/06 01:29:47;;;;;;;6.72;3.00;;;;;;;;;;5087359;28;20039;-72
2022/08/06 01:32:17;;;;;;;9.57;2.72;;;;;;;;;;5095589;28;20393;-73
2022/08/06 01:34:49;;;;;;;6.25;3.00;;;;;;;;;;5095623;28;20020;-73
2022/08/06 01:37:15;;;;;;;4.53;2.88;;;;;;;;;;5095498;28;20035;-73
2022/08/06 01:39:44;;;;;;;6.57;3.28;;;;;;;;;;5095355;28;20039;-72
2022/08/06 01:42:11;;;;;;;5.50;2.75;;;;;;;;;;5095385;28;20028;-72
2022/08/06 01:44:38;;;;;;;6.30;2.90;;;;;;;;;;5094954;28;20369;-73
2022/08/06 01:47:06;;;;;;;7.60;3.40;;;;;;;;;;5095150;28;20470;-73
2022/08/06 01:49:33;;;;;;;6.13;2.75;;;;;;;;;;5095197;28;20028;-73
2022/08/06 01:52:02;;;;;;;5.70;2.90;;;;;;;;;;5095084;28;20031;-72
2022/08/06 01:54:29;;;;;;;6.80;3.00;;;;;;;;;;5095338;28;20069;-73
2022/08/06 01:56:58;;;;;;;5.15;3.20;;;;;;;;;;5094901;28;20028;-73
2022/08/06 01:59:30;;;;;;;6.50;3.00;;;;;;;;;;5094808;28;20020;-72
2022/08/06 02:01:57;;;;;;;6.35;2.95;;;;;;;;;;5094993;28;20024;-73
2022/08/06 02:04:26;;;;;;;4.85;3.20;;;;;;;;;;5094750;28;20024;-73
2022/08/06 02:06:53;;;;;;;7.47;3.13;;;;;;;;;;5095135;28;20020;-73
2022/08/06 02:09:21;;;;;;;5.78;2.90;;;;;;;;;;5095246;28;20015;-73
2022/08/06 02:11:54;;;;;;;7.45;3.08;;;;;;;;;;5094797;28;20036;-73
2022/08/06 02:14:21;;;;;;;5.82;3.00;;;;;;;;;;5094546;28;20500;-72
2022/08/06 02:16:48;;;;;;;4.50;2.80;;;;;;;;;;5094746;28;20036;-73
2022/08/06 02:19:17;;;;;;;4.72;3.00;;;;;;;;;;5094989;28;20024;-72
2022/08/06 02:21:45;;;;;;;3.20;2.50;;;;;;;;;;5094346;28;20521;-73
2022/08/06 02:24:12;;;;;;;6.65;3.00;;;;;;;;;;5094179;28;20012;-73
2022/08/06 02:26:39;;;;;;;3.85;2.80;;;;;;;;;;5094826;28;20031;-72
2022/08/06 02:29:07;;;;;;;7.43;3.20;;;;;;;;;;5094381;28;20016;-73
2022/08/06 02:31:33;;;;;;;7.38;3.03;;;;;;;;;;5094203;28;20031;-73
2022/08/06 02:34:00;;;;;;;4.80;3.10;;;;;;;;;;5094217;28;20028;-72
2022/08/06 02:36:46;;;;;;;3.00;2.70;;;;;;;;;;5093778;28;20020;-73
2022/08/06 02:39:16;;;;;;;4.32;3.00;;;;;;;;;;5093829;28;20058;-73
2022/08/06 02:41:46;;;;;;;4.55;2.65;;;;;;;;;;5093721;28;20020;-72
2022/08/06 02:44:20;;;;;;;4.90;2.50;;;;;;;;;;5094348;28;20020;-71
2022/08/06 02:47:05;;;;;;;6.30;3.15;;;;;;;;;;5094045;28;20030;-73
2022/08/06 02:49:33;;;;;;;3.05;2.67;;;;;;;;;;5094159;28;20420;-72
2022/08/06 02:52:11;;;;;;;5.47;2.80;;;;;;;;;;5094212;28;20034;-72
2022/08/06 02:54:39;;;;;;;7.65;2.85;;;;;;;;;;5093900;28;20028;-72
2022/08/06 02:57:08;;;;;;;4.30;2.90;;;;;;;;;;5093844;28;20038;-73
2022/08/06 02:59:39;;;;;;;3.35;2.80;;;;;;;;;;5093736;28;20417;-73
2022/08/06 03:02:08;;;;;;;5.85;3.13;;;;;;;;;;5094207;28;20028;-73
2022/08/06 03:04:36;;;;;;;6.03;2.92;;;;;;;;;;5093760;28;20454;-72
2022/08/06 03:07:06;;;;;;;6.18;2.90;;;;;;;;;;5093780;28;20427;-72
2022/08/06 03:09:32;;;;;;;5.45;2.88;;;;;;;;;;5093574;28;20024;-73
2022/08/06 03:12:00;;;;;;;4.80;2.70;;;;;;;;;;5093270;28;20025;-73
2022/08/06 03:14:26;;;;;;;9.13;3.17;;;;;;;;;;5093561;28;20459;-72
2022/08/06 03:16:54;;;;;;;6.25;2.90;;;;;;;;;;5093526;28;20069;-73
2022/08/06 03:19:21;;;;;;;5.05;2.80;;;;;;;;;;5093951;28;20024;-72
2022/08/06 03:21:48;;;;;;;5.50;3.05;;;;;;;;;;5093277;28;20534;-72
2022/08/06 03:24:15;;;;;;;6.20;3.08;;;;;;;;;;5093408;28;20020;-73
2022/08/06 03:26:42;;;;;;;8.75;3.13;;;;;;;;;;5093122;28;20027;-72
2022/08/06 03:29:09;;;;;;;5.07;2.80;;;;;;;;;;5093219;28;20023;-72
2022/08/06 03:31:36;;;;;;;5.32;2.90;;;;;;;;;;5093151;28;20414;-73
2022/08/06 03:34:02;;;;;;;3.10;2.75;;;;;;;;;;5092996;28;20018;-72
2022/08/06 03:36:29;;;;;;;4.10;2.72;;;;;;;;;;5092874;28;20039;-72
2022/08/06 03:38:57;;;;;;;8.73;3.10;;;;;;;;;;5092982;28;20486;-73
2022/08/06 03:41:28;;;;;;;4.85;2.70;;;;;;;;;;5092783;28;20046;-73
2022/08/06 03:43:55;;;;;;;5.03;2.80;;;;;;;;;;5093339;28;20042;-73
2022/08/06 03:46:25;;;;;;;4.47;2.95;;;;;;;;;;5092928;28;20023;-73
2022/08/06 03:48:52;;;;;;;2.90;2.60;;;;;;;;;;5091690;28;20034;-72
2022/08/06 03:51:22;;;;;;;3.35;2.78;;;;;;;;;;5093039;28;20278;-73
2022/08/06 03:53:49;;;;;;;4.30;3.00;;;;;;;;;;5092780;28;20574;-73
2022/08/06 03:56:19;;;;;;;4.85;2.80;;;;;;;;;;5092312;28;20486;-72
2022/08/06 03:58:46;;;;;;;5.88;3.10;;;;;;;;;;5093144;28;20070;-73
2022/08/06 04:01:14;;;;;;;5.65;3.05;;;;;;;;;;5093146;28;20024;-72
2022/08/06 04:03:41;;;;;;;4.38;3.10;;;;;;;;;;5092957;28;20137;-73
2022/08/06 04:06:11;;;;;;;3.53;2.70;;;;;;;;;;5092997;28;20028;-73
2022/08/06 04:08:41;;;;;;;5.00;3.00;;;;;;;;;;5092804;28;20012;-72
2022/08/06 04:11:09;;;;;;;4.95;2.92;;;;;;;;;;5092500;28;20528;-72
2022/08/06 04:13:36;;;;;;;7.72;3.13;;;;;;;;;;5092486;28;20070;-72
2022/08/06 04:16:03;;;;;;;4.15;2.80;;;;;;;;;;5092594;28;20023;-72
2022/08/06 04:18:33;;;;;;;4.35;2.97;;;;;;;;;;5092724;28;20024;-73
2022/08/06 04:21:05;;;;;;;6.43;2.72;;;;;;;;;;5092393;28;20393;-72
2022/08/06 04:23:31;;;;;;;4.28;2.70;;;;;;;;;;5091954;28;20020;-72
2022/08/06 04:25:59;;;;;;;5.18;3.20;;;;;;;;;;5091141;28;20050;-72
2022/08/06 04:28:27;;;;;;;5.45;3.10;;;;;;;;;;5092378;28;20024;-72
2022/08/06 04:30:54;;;;;;;8.30;2.88;;;;;;;;;;5092282;28;20042;-73
2022/08/06 04:33:22;;;;;;;4.95;3.38;;;;;;;;;;5092384;28;20016;-73
2022/08/06 04:35:48;;;;;;;5.93;3.05;;;;;;;;;;5092223;28;20035;-72
2022/08/06 04:38:16;;;;;;;3.20;2.75;;;;;;;;;;5091650;28;20031;-72
2022/08/06 04:40:42;;;;;;;5.28;3.10;;;;;;;;;;5092219;28;20066;-72
2022/08/06 04:43:09;;;;;;;6.95;3.10;;;;;;;;;;5090904;28;20032;-72
2022/08/06 04:45:43;;;;;;;6.45;3.28;;;;;;;;;;5092784;28;20463;-72
2022/08/06 04:48:10;;;;;;;5.65;3.10;;;;;;;;;;5096250;28;20020;-72
2022/08/06 04:50:37;;;;;;;3.22;2.85;;;;;;;;;;5096059;28;20540;-72
2022/08/06 04:53:14;;;;;;;4.55;2.83;;;;;;;;;;5095928;28;20016;-72
2022/08/06 04:55:41;;;;;;;4.00;3.20;;;;;;;;;;5096157;28;20405;-72
2022/08/06 04:58:08;;;;;;;4.03;2.90;;;;;;;;;;5096590;28;20016;-72
2022/08/06 05:00:35;;;;;;;5.20;3.00;;;;;;;;;;5096020;28;20023;-72
2022/08/06 05:03:02;;;;;;;5.97;3.20;;;;;;;;;;5096021;28;20024;-73
2022/08/06 05:05:31;;;;;;;5.03;3.03;;;;;;;;;;5096118;28;20020;-73
2022/08/06 05:07:58;;;;;;;5.25;3.20;;;;;;;;;;5095753;28;20024;-72
2022/08/06 05:10:27;;;;;;;6.45;3.00;;;;;;;;;;5094632;28;20032;-73
2022/08/06 05:12:55;;;;;;;7.18;3.08;;;;;;;;;;5095842;28;20028;-72
2022/08/06 05:15:29;;;;;;;3.33;3.00;;;;;;;;;;5096165;28;20030;-72
2022/08/06 05:18:15;;;;;;;5.68;3.15;;;;;;;;;;5096039;28;20031;-72
2022/08/06 05:20:43;;;;;;;6.32;3.63;;;;;;;;;;5095851;28;20028;-72
2022/08/06 05:23:12;;;;;;;7.00;2.92;;;;;;;;;;5095665;28;20088;-72
2022/08/06 05:25:38;;;;;;;8.30;3.25;;;;;;;;;;5095572;28;20016;-72
2022/08/06 05:28:06;;;;;;;6.82;3.20;;;;;;;;;;5095982;28;20039;-72
2022/08/06 05:30:32;;;;;;;6.30;3.33;;;;;;;;;;5095437;28;20034;-72
2022/08/06 05:32:58;;;;;;;9.18;3.22;;;;;;;;;;5094477;28;20034;-72
2022/08/06 05:35:26;;;;;;;4.47;3.13;;;;;;;;;;5095379;28;20024;-72
2022/08/06 05:37:52;;;;;;;4.28;3.08;;;;;;;;;;5094864;28;20027;-73
2022/08/06 05:40:18;;;;;;;4.65;3.03;;;;;;;;;;5095404;28;20046;-72
2022/08/06 05:42:45;;;;;;;6.40;3.50;;;;;;;;;;5095431;28;20032;-72
2022/08/06 05:45:13;;;;;;;7.20;3.58;;;;;;;;;;5095285;28;20023;-72
2022/08/06 05:47:41;;;;;;;9.23;3.00;;;;;;;;;;5095373;28;20056;-72
2022/08/06 05:50:16;;;;;;;5.32;3.63;;;;;;;;;;5095022;28;20028;-73
2022/08/06 05:52:55;;;;;;;6.88;3.20;;;;;;;;;;5095496;28;20024;-72
2022/08/06 05:55:40;;;;;;;5.47;3.53;;;;;;;;;;5095336;28;20028;-73
2022/08/06 05:58:13;;;;;;;15.50;11.27;;;;;;;;;;5094503;28;20030;-72
2022/08/06 06:00:40;;;;;;;8.02;3.42;;;;;;;;;;5095260;28;20030;-72
2022/08/06 06:03:08;;;;;;;8.57;3.35;;;;;;;;;;5095113;28;20129;-72
2022/08/06 06:05:35;;;;;;;7.47;3.17;;;;;;;;;;5094474;28;20026;-73
2022/08/06 06:08:02;;;;;;;7.50;3.05;;;;;;;;;;5095009;28;20023;-72
2022/08/06 06:10:29;;;;;;;7.00;3.45;;;;;;;;;;5094654;28;20044;-72
2022/08/06 06:12:56;;;;;;;6.63;3.17;;;;;;;;;;5094900;28;20500;-72
2022/08/06 06:15:22;;;;;;;6.72;3.63;;;;;;;;;;5093469;28;20413;-73
2022/08/06 06:17:55;;;;;;;7.13;3.58;;;;;;;;;;5094747;28;20027;-72
2022/08/06 06:20:40;;;;;;;6.97;3.97;;;;;;;;;;5094203;28;20486;-72
2022/08/06 06:23:16;;;;;;;9.00;3.10;;;;;;;;;;5095013;28;20020;-73
2022/08/06 06:25:58;;;;;;;7.88;3.17;;;;;;;;;;5094487;28;20020;-72
2022/08/06 06:28:43;;;;;;;7.90;2.88;;;;;;;;;;5094646;28;20036;-72
2022/08/06 06:31:09;;;;;;;6.85;3.13;;;;;;;;;;5094451;28;20032;-72
2022/08/06 06:33:38;;;;;;;6.22;3.83;;;;;;;;;;5093919;28;20016;-72
2022/08/06 06:36:08;;;;;;;7.75;3.38;;;;;;;;;;5092977;28;20490;-72
2022/08/06 06:38:50;;;;;;;5.13;3.20;;;;;;;;;;5094266;28;20039;-72
2022/08/06 06:41:19;;;;;;;7.35;3.25;;;;;;;;;;5094550;28;20044;-72
2022/08/06 06:44:04;;;;;;;5.07;3.40;;;;;;;;;;5094130;28;20027;-73
2022/08/06 06:46:33;;;;;;;3.53;3.20;;;;;;;;;;5094052;28;20038;-72
2022/08/06 06:49:02;;;;;;;6.28;3.55;;;;;;;;;;5092721;28;20039;-73
2022/08/06 06:51:31;;;;;;;9.75;3.50;;;;;;;;;;5092778;28;20035;-72
2022/08/06 06:53:58;;;;;;;5.80;3.22;;;;;;;;;;5094276;28;20030;-73
2022/08/06 06:56:27;;;;;;;5.78;3.40;;;;;;;;;;5094086;28;20028;-73
2022/08/06 06:59:00;;;;;;;5.45;3.60;;;;;;;;;;5093917;28;20028;-73
2022/08/06 07:01:30;;;;;;;4.50;3.33;;;;;;;;;;5093785;28;20381;-73
2022/08/06 07:03:58;;;;;;;3.70;2.95;;;;;;;;;;5093600;28;20027;-73
2022/08/06 07:06:26;;;;;;;7.53;2.97;;;;;;;;;;5093561;28;20028;-72
2022/08/06 07:08:52;;;;;;;5.45;2.63;;;;;;;;;;5093289;28;20024;-72
2022/08/06 07:11:23;;;;;;;7.07;2.90;;;;;;;;;;5093221;28;20043;-72
2022/08/06 07:13:50;;;;;;;5.85;3.30;;;;;;;;;;5093870;28;20034;-72
2022/08/06 07:16:19;;;;;;;3.42;2.80;;;;;;;;;;5093403;28;20027;-72
2022/08/06 07:18:46;;;;;;;4.78;2.60;;;;;;;;;;5093195;28;20524;-73
2022/08/06 07:21:14;;;;;;;4.25;2.67;;;;;;;;;;5093434;28;20020;-73
2022/08/06 07:23:40;;;;;;;6.22;2.88;;;;;;;;;;5093188;28;20050;-73
2022/08/06 07:26:07;;;;;;;3.53;2.45;;;;;;;;;;5093627;28;20016;-73
2022/08/06 07:28:34;;;;;;;4.03;2.97;;;;;;;;;;5093364;28;20035;-73
2022/08/06 07:31:03;;;;;;;10.63;3.20;;;;;;;;;;5093039;28;20032;-73
2022/08/06 07:33:29;;;;;;;5.93;2.92;;;;;;;;;;5093069;28;20053;-73
2022/08/06 07:35:56;;;;;;;4.88;2.92;;;;;;;;;;5092834;28;20020;-72
2022/08/06 07:38:25;;;;;;;8.98;2.95;;;;;;;;;;5093480;28;20057;-73
2022/08/06 07:40:54;;;;;;;8.88;3.20;;;;;;;;;;5093050;28;20044;-73
2022/08/06 07:43:23;;;;;;;7.15;2.90;;;;;;;;;;5091833;28;20375;-72
2022/08/06 07:45:50;;;;;;;7.80;2.95;;;;;;;;;;5093764;28;20032;-72
2022/08/06 07:48:21;;;;;;;3.08;2.45;;;;;;;;;;5092851;28;20024;-72
2022/08/06 07:50:49;;;;;;;7.13;3.47;;;;;;;;;;5092954;28;20500;-72
2022/08/06 07:53:16;;;;;;;7.28;3.33;;;;;;;;;;5092841;28;20039;-72
2022/08/06 07:55:43;;;;;;;4.80;2.55;;;;;;;;;;5092738;28;20024;-73
2022/08/06 07:58:10;;;;;;;7.97;3.05;;;;;;;;;;5092813;28;20081;-73
2022/08/06 08:00:37;;;;;;;3.58;2.10;;;;;;;;;;5092576;28;20032;-72
2022/08/06 08:08:35;;;;;;;3.53;2.63;;;;;;;;;;5092561;28;20028;-73
2022/08/06 08:11:02;;;;;;;3.72;2.58;;;;;;;;;;5092667;28;20040;-73
2022/08/06 08:13:29;;;;;;;8.43;2.20;;;;;;;;;;5093054;28;20012;-72
2022/08/06 08:15:56;;;;;;;3.38;2.20;;;;;;;;;;5092127;28;20039;-73
2022/08/06 08:18:29;;;;;;;3.22;2.45;;;;;;;;;;5091374;28;20024;-72
2022/08/06 08:20:56;;;;;;;6.68;2.53;;;;;;;;;;5092281;28;20028;-72
2022/08/06 08:23:23;;;;;;;5.88;2.38;;;;;;;;;;5092394;28;20383;-72
2022/08/06 08:25:50;;;;;;;3.63;2.38;;;;;;;;;;5092251;28;20023;-73
2022/08/06 08:28:16;;;;;;;3.33;2.50;;;;;;;;;;5092382;28;20415;-73
2022/08/06 08:30:43;;;;;;;5.75;2.33;;;;;;;;;;5091386;28;20429;-73
2022/08/06 08:33:09;;;;;;;4.50;2.58;;;;;;;;;;5091909;28;20385;-73
2022/08/06 08:35:35;;;;;;;3.92;2.40;;;;;;;;;;5092178;28;20027;-73
2022/08/06 08:38:02;;;;;;;3.13;2.30;;;;;;;;;;5092357;28;20024;-73
2022/08/06 08:40:29;;;;;;;5.38;2.50;;;;;;;;;;5092009;28;20055;-73
2022/08/06 08:42:58;;;;;;;5.13;2.55;;;;;;;;;;5090805;28;20525;-73
2022/08/06 08:45:25;;;;;;;4.35;2.00;;;;;;;;;;5091841;28;20016;-73
2022/08/06 08:47:52;;;;;;;3.40;2.00;;;;;;;;;;5092050;28;20397;-73
2022/08/06 08:50:20;;;;;;;14.77;7.85;;;;;;;;;;5092359;28;20035;-73
2022/08/06 08:52:49;;;;;;;8.82;2.83;;;;;;;;;;5092180;28;20024;-73
2022/08/06 08:55:17;;;;;;;3.63;2.03;;;;;;;;;;5092263;28;20036;-72
2022/08/06 08:57:43;;;;;;;3.78;1.95;;;;;;;;;;5091933;28;20016;-73
2022/08/06 09:00:10;;;;;;;4.55;2.20;;;;;;;;;;5091754;28;20035;-73
2022/08/06 09:02:38;;;;;;;6.07;2.67;;;;;;;;;;5092287;28;20025;-73
2022/08/06 09:05:05;;;;;;;4.80;2.40;;;;;;;;;;5092093;28;20478;-73
2022/08/06 09:07:32;;;;;;;2.42;2.20;;;;;;;;;;5092234;28;20016;-73
2022/08/06 09:09:59;;;;;;;4.05;2.35;;;;;;;;;;5091785;28;20025;-73
2022/08/06 09:12:25;;;;;;;3.50;2.20;;;;;;;;;;5091975;28;20028;-73
2022/08/06 09:14:52;;;;;;;8.25;2.20;;;;;;;;;;5090340;28;20024;-73
2022/08/06 09:17:18;;;;;;;4.57;2.20;;;;;;;;;;5092033;28;20068;-73
2022/08/06 09:19:45;;;;;;;5.55;2.30;;;;;;;;;;5092001;28;20054;-73
2022/08/06 09:22:11;;;;;;;6.93;2.65;;;;;;;;;;5091972;28;20073;-73
2022/08/06 09:24:38;;;;;;;5.13;2.28;;;;;;;;;;5092089;28;20024;-73
2022/08/06 09:27:08;;;;;;;3.70;2.30;;;;;;;;;;5091665;28;20032;-73
2022/08/06 09:29:35;;;;;;;4.73;2.30;;;;;;;;;;5091393;28;20027;-73
2022/08/06 09:32:04;;;;;;;10.15;2.88;;;;;;;;;;5091755;28;20389;-73
2022/08/06 09:34:37;;;;;;;9.52;2.60;;;;;;;;;;5095382;28;20030;-73
2022/08/06 09:37:04;;;;;;;5.03;2.65;;;;;;;;;;5095493;28;20028;-73
2022/08/06 09:39:37;;;;;;;3.22;2.20;;;;;;;;;;5095233;28;20054;-74
2022/08/06 09:42:03;;;;;;;2.40;2.10;;;;;;;;;;5128029;27;20397;-73
2022/08/06 09:44:30;;;;;;;7.35;2.42;;;;;;;;;;5095402;28;20024;-73
2022/08/06 09:46:57;;;;;;;2.80;2.50;;;;;;;;;;5095252;28;20023;-73
2022/08/06 09:49:24;;;;;;;3.45;2.42;;;;;;;;;;5095326;28;20460;-73
2022/08/06 09:51:50;;;;;;;3.25;2.28;;;;;;;;;;5095046;28;20032;-73
2022/08/06 09:54:16;;;;;;;4.47;2.55;;;;;;;;;;5095199;28;20023;-73
2022/08/06 09:56:43;;;;;;;8.52;2.55;;;;;;;;;;5094839;28;20067;-74
2022/08/06 09:59:11;;;;;;;4.63;2.80;;;;;;;;;;5095103;28;20021;-73
2022/08/06 10:01:41;;;;;;;10.25;2.60;;;;;;;;;;5094857;28;20031;-73
2022/08/06 10:04:12;;;;;;;4.97;2.30;;;;;;;;;;5094919;28;20020;-73
2022/08/06 10:06:51;;;;;;;5.70;2.60;;;;;;;;;;5094924;28;20486;-74
2022/08/06 10:09:17;;;;;;;6.45;2.38;;;;;;;;;;5095061;28;20132;-73
2022/08/06 10:11:43;;;;;;;5.03;2.80;;;;;;;;;;5094263;28;20024;-74
2022/08/06 10:14:22;;;;;;;3.20;2.40;;;;;;;;;;5094961;28;20020;-73
2022/08/06 10:17:03;;;;;;;6.97;2.45;;;;;;;;;;5094876;28;20474;-74
2022/08/06 10:19:30;;;;;;;7.20;2.50;;;;;;;;;;5095041;28;20024;-73
2022/08/06 10:22:03;;;;;;;3.58;2.40;;;;;;;;;;5094783;28;20443;-73
2022/08/06 10:24:29;;;;;;;5.45;2.80;;;;;;;;;;5094600;28;20109;-73
2022/08/06 10:26:56;;;;;;;3.45;2.50;;;;;;;;;;5094415;28;20024;-73
2022/08/06 10:29:23;;;;;;;6.15;2.78;;;;;;;;;;5094766;28;20032;-73
2022/08/06 10:31:50;;;;;;;4.60;2.42;;;;;;;;;;5094414;28;20040;-73
2022/08/06 10:34:20;;;;;;;4.10;2.35;;;;;;;;;;5094453;28;20016;-74
2022/08/06 10:36:55;;;;;;;4.85;2.47;;;;;;;;;;5094412;28;20032;-73
2022/08/06 10:39:29;;;;;;;6.85;2.45;;;;;;;;;;5094575;28;20044;-73
2022/08/06 10:41:55;;;;;;;3.88;2.30;;;;;;;;;;5093887;28;20032;-73
2022/08/06 10:44:26;;;;;;;8.80;2.63;;;;;;;;;;5094043;28;20013;-73
2022/08/06 10:46:52;;;;;;;6.90;2.70;;;;;;;;;;5094075;28;20030;-74
2022/08/06 10:49:22;;;;;;;4.40;2.65;;;;;;;;;;5094279;28;20034;-73
2022/08/06 10:51:49;;;;;;;4.35;2.50;;;;;;;;;;5093974;28;20031;-73
2022/08/06 10:54:19;;;;;;;6.60;3.10;;;;;;;;;;5094333;28;20020;-73
2022/08/06 10:56:45;;;;;;;6.28;2.83;;;;;;;;;;5093861;28;20021;-73
2022/08/06 10:59:15;;;;;;;6.38;2.72;;;;;;;;;;5093876;28;20032;-73
2022/08/06 11:01:44;;;;;;;5.68;2.53;;;;;;;;;;5094119;28;20024;-73
2022/08/06 11:04:46;;;;;;;5.32;2.83;;;;;;;;;;5093839;28;20020;-74
2022/08/06 11:07:18;;;;;;;5.45;2.40;;;;;;;;;;5031505;28;20037;-73
2022/08/06 11:10:00;;;;;;;9.95;2.97;;;;;;;;;;5031172;28;20503;-73
2022/08/06 11:12:35;;;;;;;6.25;2.67;;;;;;;;;;5031202;28;20458;-72
2022/08/06 11:15:01;;;;;;;5.95;2.70;;;;;;;;;;5014825;28;20045;-73
2022/08/06 11:17:41;;;;;;;5.22;2.50;;;;;;;;;;5031555;28;20040;-73
2022/08/06 11:20:08;;;;;;;4.30;2.30;;;;;;;;;;5031180;28;20017;-73
2022/08/06 11:22:39;;;;;;;7.78;2.45;;;;;;;;;;5031411;28;20041;-74
2022/08/06 11:25:09;;;;;;;7.00;2.80;;;;;;;;;;5030708;28;20151;-73
2022/08/06 11:27:48;;;;;;;10.07;2.55;;;;;;;;;;5031362;28;20055;-72
2022/08/06 11:30:15;;;;;;;5.38;2.58;;;;;;;;;;5031276;28;20075;-73
2022/08/06 11:32:44;;;;;;;4.07;2.53;;;;;;;;;;5030954;28;20037;-73
2022/08/06 11:35:46;;;;;;;5.22;2.67;;;;;;;;;;5030738;28;20044;-73
2022/08/06 11:38:14;;;;;;;6.63;2.75;;;;;;;;;;4952227;28;20512;-73
2022/08/06 11:40:58;;;;;;;7.28;2.80;;;;;;;;;;4969689;28;20068;-73
2022/08/06 11:43:43;;;;;;;13.10;3.03;;;;;;;;;;5011252;28;20515;-73
2022/08/06 11:46:18;;;;;;;7.28;2.60;;;;;;;;;;5011403;28;20037;-73
2022/08/06 11:49:07;;;;;;;3.67;2.50;;;;;;;;;;5011003;28;20034;-73
2022/08/06 11:51:43;;;;;;;5.35;2.30;;;;;;;;;;4952336;29;20059;-73
2022/08/06 11:54:11;;;;;;;7.05;2.67;;;;;;;;;;4952075;29;20103;-73
2022/08/06 11:56:57;;;;;;;7.57;2.78;;;;;;;;;;4952069;28;20552;-73
2022/08/06 11:59:23;;;;;;;6.15;2.65;;;;;;;;;;4952385;29;20057;-73
2022/08/06 12:01:50;;;;;;;6.20;2.63;;;;;;;;;;4952410;29;20085;-73
2022/08/06 12:04:35;;;;;;;4.53;2.25;;;;;;;;;;4952680;29;20031;-73
2022/08/06 12:07:16;;;;;;;6.07;2.92;;;;;;;;;;4951812;29;20047;-72
2022/08/06 12:09:44;;;;;;;3.85;2.65;;;;;;;;;;4952167;29;20039;-73
2022/08/06 12:12:28;;;;;;;4.25;2.55;;;;;;;;;;4961889;28;20042;-73
2022/08/06 12:14:55;;;;;;;4.97;2.42;;;;;;;;;;4971469;28;20057;-73
2022/08/06 12:17:23;;;;;;;6.13;2.90;;;;;;;;;;4971605;28;20382;-73
2022/08/06 12:19:53;;;;;;;4.38;2.58;;;;;;;;;;4971511;28;20031;-73
2022/08/06 12:22:21;;;;;;;7.60;2.45;;;;;;;;;;4968585;28;20066;-73
2022/08/06 12:24:49;;;;;;;9.80;2.42;;;;;;;;;;4971354;28;20641;-74
2022/08/06 12:27:16;;;;;;;3.53;2.60;;;;;;;;;;4971538;28;20031;-73
2022/08/06 12:29:43;;;;;;;8.75;2.60;;;;;;;;;;5069955;28;20401;-73
2022/08/06 12:32:25;;;;;;;4.65;2.60;;;;;;;;;;5072343;28;20028;-74
2022/08/06 12:34:55;;;;;;;6.53;2.40;;;;;;;;;;5081618;28;20031;-73
2022/08/06 12:37:21;;;;;;;5.47;2.63;;;;;;;;;;5091907;28;20020;-73
2022/08/06 12:42:33;;;;;;;7.18;2.83;;;;;;;;;;5092248;28;20516;-73
2022/08/06 12:44:59;;;;;;;8.57;2.63;;;;;;;;;;5092276;28;20026;-71
2022/08/06 12:47:25;;;;;;;7.20;2.85;;;;;;;;;;5092308;28;20024;-73
2022/08/06 12:49:53;;;;;;;4.72;2.50;;;;;;;;;;5092097;28;20035;-73
2022/08/06 12:52:20;;;;;;;6.82;2.53;;;;;;;;;;5091689;28;20032;-74
2022/08/06 12:54:47;;;;;;;8.60;2.78;;;;;;;;;;5091135;28;20069;-73
2022/08/06 12:57:26;;;;;;;5.53;2.58;;;;;;;;;;5092238;28;20028;-73
2022/08/06 12:59:53;;;;;;;6.82;2.60;;;;;;;;;;5092384;28;20042;-73
2022/08/06 13:02:21;;;;;;;6.90;2.67;;;;;;;;;;5091996;28;20028;-73
2022/08/06 13:04:49;;;;;;;7.97;2.70;;;;;;;;;;5092376;28;20024;-73
2022/08/06 13:07:16;;;;;;;5.78;2.75;;;;;;;;;;5093352;28;20034;-73
2022/08/06 13:09:43;;;;;;;3.55;2.45;;;;;;;;;;5096162;28;20024;-73
2022/08/06 13:12:14;;;;;;;5.82;2.80;;;;;;;;;;5096062;28;20040;-73
2022/08/06 13:14:52;;;;;;;7.53;2.95;;;;;;;;;;5095917;28;20023;-73
2022/08/06 13:17:21;;;;;;;2.92;2.45;;;;;;;;;;5096162;28;20023;-73
2022/08/06 13:19:54;;;;;;;7.72;2.40;;;;;;;;;;5095492;28;20546;-73
2022/08/06 13:22:23;;;;;;;5.63;2.45;;;;;;;;;;5096104;28;20020;-73
2022/08/06 13:25:09;;;;;;;3.55;2.45;;;;;;;;;;5095838;28;20021;-73
2022/08/06 13:27:38;;;;;;;7.00;2.88;;;;;;;;;;5095743;28;20032;-74
2022/08/06 13:30:06;;;;;;;4.22;2.60;;;;;;;;;;5095750;28;20054;-73
2022/08/06 13:32:32;;;;;;;6.93;2.60;;;;;;;;;;5095767;28;20044;-73
2022/08/06 13:34:59;;;;;;;7.57;2.80;;;;;;;;;;5095441;28;20028;-73
2022/08/06 13:37:50;;;;;;;4.03;2.88;;;;;;;;;;5095348;28;20030;-73
2022/08/06 13:40:17;;;;;;;3.97;2.60;;;;;;;;;;5095280;28;20051;-73
2022/08/06 13:42:51;;;;;;;3.78;2.50;;;;;;;;;;5095869;28;20016;-73
2022/08/06 13:45:25;;;;;;;5.15;2.45;;;;;;;;;;5094220;28;20042;-73
2022/08/06 13:48:01;;;;;;;9.30;2.95;;;;;;;;;;5095447;28;20032;-73
2022/08/06 13:50:27;;;;;;;4.15;2.42;;;;;;;;;;5093490;28;20486;-73
2022/08/06 13:52:54;;;;;;;4.22;2.33;;;;;;;;;;5095390;28;20024;-73
2022/08/06 13:55:24;;;;;;;5.10;2.42;;;;;;;;;;5095338;28;20508;-73
2022/08/06 13:57:50;;;;;;;5.47;2.40;;;;;;;;;;5095246;28;20024;-73
2022/08/06 14:00:17;;;;;;;6.43;2.53;;;;;;;;;;5095289;28;20027;-73
2022/08/06 14:02:43;;;;;;;6.95;2.50;;;;;;;;;;5095243;28;20031;-73
2022/08/06 14:05:09;;;;;;;7.57;2.60;;;;;;;;;;5095044;28;20068;-73
2022/08/06 14:07:36;;;;;;;7.72;2.88;;;;;;;;;;5094977;28;20024;-73
2022/08/06 14:10:02;;;;;;;8.30;2.63;;;;;;;;;;5094996;28;20027;-73
2022/08/06 14:12:28;;;;;;;5.70;2.88;;;;;;;;;;5094740;28;20036;-73
2022/08/06 14:14:55;;;;;;;4.60;2.38;;;;;;;;;;5094827;28;20077;-73
2022/08/06 14:17:21;;;;;;;7.22;2.65;;;;;;;;;;5093806;28;20032;-73
2022/08/06 14:19:49;;;;;;;5.25;2.80;;;;;;;;;;5092462;28;20028;-73
2022/08/06 14:22:16;;;;;;;6.93;2.88;;;;;;;;;;5094944;28;20030;-73
2022/08/06 14:24:42;;;;;;;7.25;2.50;;;;;;;;;;5094914;28;20023;-73
2022/08/06 14:27:09;;;;;;;9.20;2.60;;;;;;;;;;5094609;28;20024;-73
2022/08/06 14:29:35;;;;;;;3.63;2.42;;;;;;;;;;5094450;28;20020;-73
2022/08/06 14:32:02;;;;;;;2.85;2.42;;;;;;;;;;5094357;28;20048;-73
2022/08/06 14:34:29;;;;;;;6.22;2.55;;;;;;;;;;5094186;28;20024;-73
2022/08/06 14:36:56;;;;;;;5.57;2.95;;;;;;;;;;5094390;28;20043;-73
2022/08/06 14:39:22;;;;;;;4.45;2.70;;;;;;;;;;5094371;28;20485;-73
2022/08/06 14:47:18;;;;;;;7.85;2.72;;;;;;;;;;5094187;28;20028;-73
2022/08/06 14:49:45;;;;;;;4.25;2.75;;;;;;;;;;5092845;28;20024;-73
2022/08/06 14:52:11;;;;;;;9.80;2.80;;;;;;;;;;5094457;28;20062;-73
2022/08/06 14:54:38;;;;;;;9.23;3.15;;;;;;;;;;5094056;28;20022;-73
2022/08/06 14:57:05;;;;;;;4.60;2.72;;;;;;;;;;5094337;28;20031;-73
2022/08/06 14:59:32;;;;;;;14.40;2.97;;;;;;;;;;5094090;28;20020;-73
2022/08/06 15:01:58;;;;;;;4.43;2.78;;;;;;;;;;5093656;28;20030;-73
2022/08/06 15:04:24;;;;;;;5.32;2.83;;;;;;;;;;5093894;28;20440;-73
2022/08/06 15:06:53;;;;;;;3.70;2.65;;;;;;;;;;5092572;28;20028;-73
2022/08/06 15:09:19;;;;;;;5.20;2.50;;;;;;;;;;5094007;28;20157;-73